createdAt,value
2019-06-08T00:01:22.640Z,59.60
2019-06-08T00:03:52.291Z,58.92
2019-06-08T00:06:22.949Z,59.19
2019-06-08T00:08:52.489Z,58.61
2019-06-08T00:11:23.268Z,58.58
2019-06-08T00:13:52.925Z,58.96
2019-06-08T00:16:23.667Z,58.88
2019-06-08T00:18:53.354Z,59.54
2019-06-08T00:21:23.907Z,59.04
2019-06-08T00:23:53.580Z,58.95
2019-06-08T00:26:24.238Z,60.25
2019-06-08T00:28:53.949Z,59.22
2019-06-08T00:31:23.416Z,59.66
2019-06-08T00:33:52.793Z,60.44
2019-06-08T00:36:22.982Z,60.84
2019-06-08T00:38:52.638Z,60.02
2019-06-08T00:41:22.403Z,60.43
2019-06-08T00:43:53.359Z,60.17
2019-06-08T00:46:23.640Z,60.21
2019-06-08T00:48:53.084Z,60.38
2019-06-08T00:51:23.092Z,60.76
2019-06-08T00:53:52.919Z,60.38
2019-06-08T00:56:23.728Z,60.65
2019-06-08T00:58:53.176Z,61.29
2019-06-08T01:01:24.686Z,61.70
2019-06-08T01:03:53.716Z,61.31
2019-06-08T01:06:23.123Z,61.53
2019-06-08T01:08:52.493Z,62.10
2019-06-08T01:11:22.573Z,61.67
2019-06-08T01:13:52.044Z,61.49
2019-06-08T01:16:21.413Z,61.21
2019-06-08T01:18:50.907Z,61.19
2019-06-08T01:21:21.283Z,61.62
2019-06-08T01:23:50.771Z,61.30
2019-06-08T01:26:20.147Z,60.55
2019-06-08T01:28:49.550Z,60.26
2019-06-08T01:31:20.298Z,59.91
2019-06-08T01:33:49.881Z,60.03
2019-06-08T01:36:20.607Z,59.96
2019-06-08T01:38:50.143Z,59.80
2019-06-08T01:41:19.523Z,60.15
2019-06-08T01:43:49.019Z,60.45
2019-06-08T01:46:18.388Z,60.66
2019-06-08T01:48:47.791Z,61.30
2019-06-08T01:51:17.233Z,62.02
2019-06-08T01:53:46.726Z,61.66
2019-06-08T01:56:16.094Z,61.19
2019-06-08T01:58:45.471Z,60.92
2019-06-08T02:01:14.881Z,61.27
2019-06-08T02:03:44.276Z,61.81
2019-06-08T02:06:13.681Z,61.71
2019-06-08T02:08:43.056Z,62.17
2019-06-08T02:11:12.448Z,61.94
2019-06-08T02:13:41.822Z,61.51
2019-06-08T02:16:11.360Z,61.86
2019-06-08T02:18:50.127Z,61.56
2019-06-08T02:21:11.813Z,62.20
2019-06-08T02:23:41.207Z,62.52
2019-06-08T02:26:10.590Z,61.25
2019-06-08T02:28:40.187Z,61.54
2019-06-08T02:31:09.709Z,62.38
2019-06-08T02:33:40.498Z,62.28
2019-06-08T02:36:10.077Z,61.33
2019-06-08T02:38:39.643Z,62.05
2019-06-08T02:41:09.036Z,61.50
2019-06-08T02:43:40.312Z,61.98
2019-06-08T02:46:09.522Z,61.32
2019-06-08T02:49:00.497Z,61.79
2019-06-08T02:51:10.243Z,61.76
2019-06-08T02:53:41.572Z,61.67
2019-06-08T02:56:14.505Z,62.05
2019-06-08T02:58:44.463Z,61.93
2019-06-08T03:01:16.805Z,62.02
2019-06-08T03:03:48.219Z,61.87
2019-06-08T03:06:20.453Z,62.19
2019-06-08T03:08:50.991Z,63.01
2019-06-08T03:11:21.568Z,63.24
2019-06-08T03:13:52.439Z,62.26
2019-06-08T03:16:21.852Z,62.79
2019-06-08T03:18:51.216Z,62.94
2019-06-08T03:21:20.587Z,62.62
2019-06-08T03:23:49.970Z,62.13
2019-06-08T03:26:19.469Z,62.66
2019-06-08T03:28:48.848Z,62.00
2019-06-08T03:31:18.221Z,61.77
2019-06-08T03:33:55.153Z,61.39
2019-06-08T03:36:18.763Z,61.11
2019-06-08T03:38:48.180Z,60.61
2019-06-08T03:41:17.542Z,60.48
2019-06-08T03:43:46.912Z,61.03
2019-06-08T03:46:16.315Z,61.20
2019-06-08T03:48:46.480Z,60.38
2019-06-08T03:51:16.184Z,60.64
2019-06-08T03:53:47.418Z,60.54
2019-06-08T03:56:16.677Z,61.42
2019-06-08T03:58:47.955Z,61.52
2019-06-08T04:01:17.177Z,61.93
2019-06-08T04:03:46.650Z,61.56
2019-06-08T04:06:16.029Z,61.47
2019-06-08T04:08:47.506Z,61.22
2019-06-08T04:11:16.621Z,61.31
2019-06-08T04:13:47.188Z,60.58
2019-06-08T04:16:16.919Z,60.68
2019-06-08T04:18:46.823Z,60.83
2019-06-08T04:21:16.770Z,60.36
2019-06-08T04:23:47.156Z,60.38
2019-06-08T04:26:16.687Z,59.82
2019-06-08T04:28:47.229Z,59.86
2019-06-08T04:31:17.191Z,59.84
2019-06-08T04:33:46.829Z,60.20
2019-06-08T04:36:16.317Z,60.33
2019-06-08T04:38:47.659Z,60.39
2019-06-08T04:41:17.162Z,61.92
2019-06-08T04:43:47.289Z,61.66
2019-06-08T04:46:17.691Z,62.44
2019-06-08T04:48:47.933Z,62.78
2019-06-08T04:51:18.274Z,62.83
2019-06-08T04:53:49.330Z,62.84
2019-06-08T04:56:18.742Z,63.27
2019-06-08T04:58:48.966Z,62.20
2019-06-08T05:01:19.253Z,62.26
2019-06-08T05:03:49.953Z,62.32
2019-06-08T05:06:19.862Z,62.00
2019-06-08T05:08:49.716Z,61.92
2019-06-08T05:11:19.276Z,62.12
2019-06-08T05:13:49.615Z,61.96
2019-06-08T05:16:19.533Z,61.64
2019-06-08T05:18:49.702Z,61.53
2019-06-08T05:21:19.418Z,61.98
2019-06-08T05:23:57.918Z,61.06
2019-06-08T05:26:19.967Z,61.57
2019-06-08T05:28:49.588Z,60.71
2019-06-08T05:31:19.156Z,61.08
2019-06-08T05:33:49.698Z,61.67
2019-06-08T05:36:19.270Z,61.86
2019-06-08T05:38:49.993Z,61.23
2019-06-08T05:41:19.552Z,60.82
2019-06-08T05:43:49.957Z,61.84
2019-06-08T05:46:19.546Z,61.91
2019-06-08T05:48:50.320Z,61.61
2019-06-08T05:51:19.786Z,60.98
2019-06-08T05:53:50.166Z,61.51
2019-06-08T05:56:19.737Z,61.19
2019-06-08T05:58:50.373Z,61.88
2019-06-08T06:01:20.066Z,61.87
2019-06-08T06:03:51.368Z,61.35
2019-06-08T06:06:20.544Z,61.42
2019-06-08T06:08:50.928Z,61.97
2019-06-08T06:11:20.515Z,61.20
2019-06-08T06:13:51.379Z,61.34
2019-06-08T06:16:21.000Z,61.27
2019-06-08T06:18:52.170Z,61.69
2019-06-08T06:21:21.445Z,61.38
2019-06-08T06:23:51.514Z,61.03
2019-06-08T06:26:21.191Z,61.74
2019-06-08T06:28:51.863Z,61.35
2019-06-08T06:31:21.319Z,61.58
2019-06-08T06:33:52.096Z,61.94
2019-06-08T06:36:21.810Z,61.33
2019-06-08T06:38:52.264Z,61.27
2019-06-08T06:41:21.726Z,62.18
2019-06-08T06:43:52.190Z,63.32
2019-06-08T06:46:21.697Z,64.63
2019-06-08T06:48:52.387Z,64.43
2019-06-08T06:51:26.323Z,65.45
2019-06-08T06:53:53.412Z,65.90
2019-06-08T06:56:22.905Z,66.02
2019-06-08T06:58:53.367Z,66.25
2019-06-08T07:01:23.273Z,65.13
2019-06-08T07:03:52.656Z,66.18
2019-06-08T07:06:22.163Z,65.98
2019-06-08T07:08:52.445Z,66.50
2019-06-08T07:11:22.013Z,65.59
2019-06-08T07:13:51.389Z,65.87
2019-06-08T07:16:20.798Z,65.42
2019-06-08T07:18:50.291Z,64.94
2019-06-08T07:21:19.667Z,64.65
2019-06-08T07:23:49.917Z,63.82
2019-06-08T07:26:20.264Z,63.62
2019-06-08T07:28:51.850Z,62.62
2019-06-08T07:31:21.107Z,61.85
2019-06-08T07:33:51.954Z,60.96
2019-06-08T07:36:21.682Z,60.91
2019-06-08T07:38:51.417Z,60.00
2019-06-08T07:41:20.823Z,59.86
2019-06-08T07:43:50.757Z,58.95
2019-06-08T07:46:20.361Z,58.57
2019-06-08T07:48:50.401Z,59.09
2019-06-08T07:51:19.899Z,57.97
2019-06-08T07:53:49.851Z,57.95
2019-06-08T07:56:19.496Z,57.59
2019-06-08T07:58:50.258Z,58.18
2019-06-08T08:01:35.310Z,58.32
2019-06-08T08:03:52.148Z,57.37
2019-06-08T08:06:21.912Z,56.23
2019-06-08T08:08:52.637Z,56.85
2019-06-08T08:11:22.040Z,57.03
2019-06-08T08:13:53.185Z,55.40
2019-06-08T08:16:22.849Z,53.94
2019-06-08T08:18:53.397Z,52.08
2019-06-08T08:21:26.190Z,52.36
2019-06-08T08:23:55.910Z,50.80
2019-06-08T08:26:27.377Z,51.04
2019-06-08T08:28:59.810Z,48.65
2019-06-08T08:31:28.009Z,48.69
2019-06-08T08:34:03.359Z,49.26
2019-06-08T08:36:32.520Z,48.39
2019-06-08T08:39:02.379Z,49.89
2019-06-08T08:41:31.558Z,48.62
2019-06-08T08:44:04.509Z,48.18
2019-06-08T08:46:32.386Z,48.24
2019-06-08T08:49:09.488Z,46.64
2019-06-08T08:51:33.436Z,46.92
2019-06-08T08:54:05.247Z,45.20
2019-06-08T08:56:34.370Z,43.95
2019-06-08T08:59:03.907Z,44.88
2019-06-08T09:01:33.546Z,45.00
2019-06-08T09:04:05.107Z,44.44
2019-06-08T09:06:34.447Z,43.49
2019-06-08T09:09:05.026Z,42.93
2019-06-08T09:11:34.593Z,42.52
2019-06-08T09:14:07.091Z,43.04
2019-06-08T09:16:35.514Z,41.42
2019-06-08T09:19:05.037Z,39.63
2019-06-08T09:21:34.558Z,39.27
2019-06-08T09:24:04.297Z,39.19
2019-06-08T09:26:34.068Z,39.42
2019-06-08T09:29:08.288Z,40.50
2019-06-08T09:31:35.078Z,41.30
2019-06-08T09:34:11.018Z,41.45
2019-06-08T09:36:38.032Z,41.79
2019-06-08T09:39:12.290Z,42.54
2019-06-08T09:41:39.504Z,42.74
2019-06-08T09:44:11.445Z,43.05
2019-06-08T09:46:40.340Z,42.66
2019-06-08T09:49:11.846Z,43.68
2019-06-08T09:51:40.925Z,43.21
2019-06-08T09:54:12.633Z,42.14
2019-06-08T09:56:41.522Z,42.32
2019-06-08T09:59:14.500Z,42.78
2019-06-08T10:01:42.130Z,41.75
2019-06-08T10:04:11.491Z,41.38
2019-06-08T10:06:41.139Z,41.60
2019-06-08T10:09:10.525Z,40.68
2019-06-08T10:11:39.912Z,41.08
2019-06-08T10:14:12.481Z,40.61
2019-06-08T10:16:40.420Z,39.13
2019-06-08T10:19:10.459Z,38.78
2019-06-08T10:21:43.021Z,39.91
2019-06-08T10:24:11.271Z,38.92
2019-06-08T10:26:40.639Z,39.10
2019-06-08T10:29:10.747Z,39.29
2019-06-08T10:31:43.613Z,39.50
2019-06-08T10:34:11.784Z,39.50
2019-06-08T10:36:41.338Z,38.59
2019-06-08T10:39:11.932Z,38.46
2019-06-08T10:41:41.696Z,39.36
2019-06-08T10:44:13.919Z,38.38
2019-06-08T10:46:42.397Z,38.73
2019-06-08T10:49:14.371Z,38.48
2019-06-08T10:51:42.925Z,37.98
2019-06-08T10:54:12.284Z,38.49
2019-06-08T10:56:41.841Z,38.68
2019-06-08T10:59:12.401Z,38.27
2019-06-08T11:01:42.091Z,36.93
2019-06-08T11:04:11.763Z,37.00
2019-06-08T11:06:41.171Z,37.53
2019-06-08T11:09:13.270Z,36.40
2019-06-08T11:11:41.713Z,36.65
2019-06-08T11:14:13.110Z,36.59
2019-06-08T11:16:42.311Z,36.94
2019-06-08T11:19:13.684Z,35.82
2019-06-08T11:21:42.840Z,36.13
2019-06-08T11:24:21.676Z,36.10
2019-06-08T11:26:43.328Z,36.53
2019-06-08T11:29:13.908Z,36.42
2019-06-08T11:31:43.622Z,36.25
2019-06-08T11:34:13.325Z,35.02
2019-06-08T11:36:42.723Z,35.92
2019-06-08T11:39:12.811Z,35.59
2019-06-08T11:41:42.580Z,35.20
2019-06-08T11:44:14.669Z,34.84
2019-06-08T11:46:43.231Z,34.79
2019-06-08T11:49:14.857Z,34.89
2019-06-08T11:51:43.794Z,34.56
2019-06-08T11:54:29.638Z,34.19
2019-06-08T11:56:45.379Z,33.29
2019-06-08T11:59:16.122Z,33.61
2019-06-08T12:01:45.542Z,32.55
2019-06-08T12:04:14.947Z,33.16
2019-06-08T12:06:44.329Z,31.98
2019-06-08T12:09:14.141Z,30.29
2019-06-08T12:11:43.582Z,30.45
2019-06-08T12:14:14.361Z,30.62
2019-06-08T12:16:43.909Z,30.47
2019-06-08T12:19:17.012Z,29.13
2019-06-08T12:21:44.363Z,28.94
2019-06-08T12:24:14.447Z,28.69
2019-06-08T12:26:47.770Z,27.91
2019-06-08T12:29:18.900Z,27.33
2019-06-08T12:31:48.303Z,26.81
2019-06-08T12:34:18.488Z,26.47
2019-06-08T12:36:48.213Z,28.92
2019-06-08T12:39:20.987Z,27.51
2019-06-08T12:41:49.007Z,27.11
2019-06-08T12:44:21.741Z,27.24
2019-06-08T12:46:49.587Z,25.67
2019-06-08T12:49:20.390Z,26.37
2019-06-08T12:51:51.765Z,24.92
2019-06-08T12:54:20.989Z,23.78
2019-06-08T12:56:50.569Z,25.27
2019-06-08T12:59:22.586Z,23.84
2019-06-08T13:01:51.191Z,23.77
2019-06-08T13:04:23.356Z,25.13
2019-06-08T13:06:51.680Z,24.43
2019-06-08T13:09:21.053Z,25.25
2019-06-08T13:11:50.815Z,23.90
2019-06-08T13:14:20.838Z,24.19
2019-06-08T13:16:53.030Z,22.40
2019-06-08T13:19:21.520Z,23.03
2019-06-08T13:21:50.896Z,23.87
2019-06-08T13:24:20.256Z,23.25
2019-06-08T13:26:50.761Z,24.23
2019-06-08T13:29:22.032Z,23.62
2019-06-08T13:31:51.683Z,24.98
2019-06-08T13:34:24.073Z,24.47
2019-06-08T13:36:52.299Z,24.41
2019-06-08T13:39:23.072Z,22.49
2019-06-08T13:41:52.634Z,22.71
2019-06-08T13:44:22.047Z,22.36
2019-06-08T13:46:51.420Z,21.98
2019-06-08T13:49:26.737Z,21.28
2019-06-08T13:51:52.004Z,23.06
2019-06-08T13:54:22.733Z,23.10
2019-06-08T13:56:52.510Z,22.70
2019-06-08T13:59:25.015Z,23.43
2019-06-08T14:01:53.209Z,24.26
2019-06-08T14:04:23.767Z,24.62
2019-06-08T14:06:53.524Z,26.73
2019-06-08T14:09:23.328Z,26.62
2019-06-08T14:11:52.864Z,26.96
2019-06-08T14:14:23.918Z,27.61
2019-06-08T14:16:53.576Z,27.94
2019-06-08T14:19:24.491Z,30.31
2019-06-08T14:21:54.294Z,30.11
2019-06-08T14:24:28.058Z,29.81
2019-06-08T14:26:54.781Z,29.19
2019-06-08T14:29:24.806Z,30.13
2019-06-08T14:31:57.597Z,30.24
2019-06-08T14:34:29.048Z,29.91
2019-06-08T14:36:59.430Z,29.38
2019-06-08T14:39:31.402Z,29.31
2019-06-08T14:41:59.875Z,29.94
2019-06-08T14:44:32.231Z,30.65
2019-06-08T14:47:03.343Z,30.85
2019-06-08T14:49:34.991Z,29.05
2019-06-08T14:52:03.851Z,29.43
2019-06-08T14:54:35.154Z,29.97
2019-06-08T14:57:04.448Z,30.09
2019-06-08T14:59:33.834Z,29.78
2019-06-08T15:02:03.264Z,29.51
2019-06-08T15:04:36.460Z,30.17
2019-06-08T15:07:03.949Z,29.39
2019-06-08T15:09:33.509Z,29.36
2019-06-08T15:12:02.884Z,30.07
2019-06-08T15:14:34.631Z,29.02
2019-06-08T15:17:03.372Z,29.05
2019-06-08T15:19:32.767Z,28.44
2019-06-08T15:22:02.348Z,27.87
2019-06-08T15:24:32.944Z,28.45
2019-06-08T15:27:02.707Z,29.17
2019-06-08T15:29:32.832Z,29.45
2019-06-08T15:32:02.372Z,29.82
2019-06-08T15:34:33.048Z,30.86
2019-06-08T15:37:02.695Z,29.34
2019-06-08T15:39:34.064Z,29.34
2019-06-08T15:42:03.339Z,29.50
2019-06-08T15:44:33.926Z,29.25
2019-06-08T15:47:03.476Z,29.25
2019-06-08T15:49:33.942Z,28.66
2019-06-08T15:52:03.410Z,28.50
2019-06-08T15:54:36.241Z,28.87
2019-06-08T15:57:03.909Z,28.66
2019-06-08T15:59:38.910Z,28.21
2019-06-08T16:02:04.433Z,27.81
2019-06-08T16:04:33.990Z,28.05
2019-06-08T16:07:03.640Z,27.08
2019-06-08T16:09:34.258Z,27.49
2019-06-08T16:12:03.830Z,27.11
2019-06-08T16:14:33.247Z,26.31
2019-06-08T16:17:02.629Z,27.07
2019-06-08T16:19:33.590Z,26.90
2019-06-08T16:22:03.240Z,26.53
2019-06-08T16:24:33.897Z,28.00
2019-06-08T16:27:03.484Z,27.71
2019-06-08T16:29:33.333Z,27.08
2019-06-08T16:32:02.963Z,27.72
2019-06-08T16:34:33.580Z,27.87
2019-06-08T16:37:03.218Z,27.95
2019-06-08T16:39:32.878Z,28.04
2019-06-08T16:42:02.371Z,28.32
2019-06-08T16:44:32.275Z,28.17
2019-06-08T16:47:01.866Z,28.07
2019-06-08T16:49:31.324Z,28.67
2019-06-08T16:52:00.835Z,27.56
2019-06-08T16:54:30.653Z,26.48
2019-06-08T16:57:09.394Z,26.18
2019-06-08T16:59:32.260Z,26.85
2019-06-08T17:02:01.824Z,27.46
2019-06-08T17:04:31.397Z,27.15
2019-06-08T17:07:01.831Z,27.85
2019-06-08T17:09:32.507Z,26.58
2019-06-08T17:12:02.396Z,25.96
2019-06-08T17:14:32.077Z,25.61
2019-06-08T17:17:01.499Z,25.00
2019-06-08T17:19:31.927Z,25.84
2019-06-08T17:22:01.441Z,25.31
2019-06-08T17:24:30.893Z,25.19
2019-06-08T17:27:00.335Z,23.57
2019-06-08T17:29:30.726Z,23.65
2019-06-08T17:32:00.446Z,23.63
2019-06-08T17:34:29.949Z,24.59
2019-06-08T17:36:59.352Z,24.91
2019-06-08T17:39:29.500Z,25.84
2019-06-08T17:41:59.005Z,25.54
2019-06-08T17:44:28.448Z,25.79
2019-06-08T17:46:57.829Z,26.23
2019-06-08T17:49:27.283Z,26.90
2019-06-08T17:51:56.623Z,27.30
2019-06-08T17:54:26.007Z,25.20
2019-06-08T17:56:55.367Z,24.71
2019-06-08T17:59:24.777Z,24.03
2019-06-08T18:01:54.261Z,24.80
2019-06-08T18:04:23.625Z,23.93
2019-06-08T18:06:52.999Z,23.79
2019-06-08T18:09:22.837Z,23.33
2019-06-08T18:11:52.413Z,23.78
2019-06-08T18:14:21.736Z,23.59
2019-06-08T18:16:51.149Z,23.65
2019-06-08T18:19:28.420Z,24.58
2019-06-08T18:22:04.666Z,23.45
2019-06-08T18:24:29.242Z,23.38
2019-06-08T18:26:59.576Z,24.58
2019-06-08T18:29:28.941Z,25.94
2019-06-08T18:31:58.504Z,26.99
2019-06-08T18:34:28.806Z,28.16
2019-06-08T18:36:58.526Z,28.97
2019-06-08T18:39:29.202Z,29.32
2019-06-08T18:41:59.083Z,30.00
2019-06-08T18:44:28.779Z,30.68
2019-06-08T18:46:58.256Z,32.36
2019-06-08T18:49:28.758Z,31.59
2019-06-08T18:51:58.653Z,32.25
2019-06-08T18:54:28.284Z,32.69
2019-06-08T18:56:57.714Z,33.10
2019-06-08T18:59:28.679Z,33.53
2019-06-08T19:01:58.642Z,33.58
2019-06-08T19:04:30.803Z,33.86
2019-06-08T19:07:02.348Z,34.22
2019-06-08T19:09:32.408Z,34.72
2019-06-08T19:12:01.850Z,35.11
2019-06-08T19:14:31.465Z,35.37
2019-06-08T19:17:00.922Z,36.13
2019-06-08T19:19:31.556Z,35.78
2019-06-08T19:22:01.062Z,36.10
2019-06-08T19:24:30.594Z,36.55
2019-06-08T19:27:00.026Z,36.74
2019-06-08T19:29:29.430Z,36.97
2019-06-08T19:32:00.429Z,37.18
2019-06-08T19:34:33.242Z,37.09
2019-06-08T19:37:01.124Z,37.21
2019-06-08T19:39:30.504Z,37.19
2019-06-08T19:42:00.201Z,37.49
2019-06-08T19:44:29.823Z,38.00
2019-06-08T19:46:59.226Z,37.69
2019-06-08T19:49:28.584Z,37.64
2019-06-08T19:51:58.215Z,37.98
2019-06-08T19:54:27.876Z,37.98
2019-06-08T19:56:57.651Z,38.19
2019-06-08T19:59:27.718Z,38.44
2019-06-08T20:01:59.605Z,38.73
2019-06-08T20:04:28.334Z,38.47
2019-06-08T20:07:00.459Z,39.09
2019-06-08T20:09:28.993Z,38.96
2019-06-08T20:12:00.242Z,39.31
2019-06-08T20:14:29.560Z,39.64
2019-06-08T20:16:59.041Z,39.38
2019-06-08T20:19:28.443Z,39.59
2019-06-08T20:21:58.361Z,39.69
2019-06-08T20:24:28.211Z,39.96
2019-06-08T20:26:57.645Z,40.43
2019-06-08T20:29:28.301Z,40.39
2019-06-08T20:31:58.427Z,40.66
2019-06-08T20:34:28.197Z,40.84
2019-06-08T20:37:01.170Z,41.37
2019-06-08T20:39:28.780Z,41.40
2019-06-08T20:41:58.676Z,41.71
2019-06-08T20:44:30.241Z,42.22
2019-06-08T20:46:59.406Z,42.43
2019-06-08T20:49:28.890Z,42.72
2019-06-08T20:52:00.351Z,43.10
2019-06-08T20:54:29.561Z,43.72
2019-06-08T20:56:58.962Z,44.41
2019-06-08T20:59:33.203Z,44.66
2019-06-08T21:01:59.464Z,44.32
2019-06-08T21:04:29.068Z,44.84
2019-06-08T21:06:58.593Z,45.10
2019-06-08T21:09:28.093Z,45.28
2019-06-08T21:11:58.712Z,45.29
2019-06-08T21:14:28.486Z,45.65
2019-06-08T21:16:58.530Z,45.58
2019-06-08T21:19:28.372Z,45.39
2019-06-08T21:21:59.317Z,45.79
2019-06-08T21:24:29.134Z,45.97
2019-06-08T21:27:00.729Z,46.57
2019-06-08T21:29:46.948Z,46.58
2019-06-08T21:32:02.583Z,46.73
2019-06-08T21:34:31.962Z,46.48
2019-06-08T21:37:01.489Z,47.03
2019-06-08T21:39:31.016Z,47.03
2019-06-08T21:42:03.066Z,47.34
2019-06-08T21:44:31.593Z,47.42
2019-06-08T21:47:01.592Z,47.53
2019-06-08T21:49:31.121Z,47.17
2019-06-08T21:52:01.267Z,48.05
2019-06-08T21:54:30.999Z,48.18
2019-06-08T21:57:01.095Z,48.51
2019-06-08T21:59:30.695Z,48.24
2019-06-08T22:02:02.656Z,48.42
2019-06-08T22:04:31.360Z,49.27
2019-06-08T22:07:03.165Z,50.41
2019-06-08T22:09:32.942Z,51.68
2019-06-08T22:12:03.290Z,52.43
2019-06-08T22:14:33.078Z,52.99
2019-06-08T22:17:03.249Z,54.72
2019-06-08T22:19:32.823Z,55.27
2019-06-08T22:22:03.868Z,55.59
2019-06-08T22:24:33.602Z,55.52
2019-06-08T22:27:03.707Z,55.58
2019-06-08T22:29:33.188Z,55.85
2019-06-08T22:32:03.947Z,55.89
2019-06-08T22:34:33.422Z,56.09
2019-06-08T22:37:03.184Z,56.53
2019-06-08T22:39:32.814Z,55.59
2019-06-08T22:42:02.224Z,54.84
2019-06-08T22:44:31.890Z,54.87
2019-06-08T22:47:03.236Z,54.43
2019-06-08T22:49:32.632Z,54.45
2019-06-08T22:52:03.040Z,54.53
2019-06-08T22:54:33.122Z,54.51
2019-06-08T22:57:04.406Z,54.95
2019-06-08T22:59:33.763Z,55.10
2019-06-08T23:02:05.711Z,55.06
2019-06-08T23:04:34.314Z,55.20
2019-06-08T23:07:06.143Z,55.78
2019-06-08T23:09:37.171Z,56.01
2019-06-08T23:12:09.336Z,56.36
2019-06-08T23:14:37.658Z,56.39
2019-06-08T23:17:08.618Z,57.24
2019-06-08T23:19:38.182Z,57.36
2019-06-08T23:22:08.350Z,57.16
2019-06-08T23:24:38.391Z,57.28
2019-06-08T23:27:07.883Z,57.56
2019-06-08T23:29:38.192Z,57.22
2019-06-08T23:32:11.466Z,57.68
2019-06-08T23:34:39.002Z,57.51
2019-06-08T23:37:12.737Z,56.06
2019-06-08T23:39:39.552Z,56.85
2019-06-08T23:42:08.971Z,56.75
2019-06-08T23:44:38.345Z,56.47
2019-06-08T23:47:08.118Z,56.01
2019-06-08T23:49:38.049Z,56.19
2019-06-08T23:52:10.416Z,56.42
2019-06-08T23:54:38.830Z,56.41
2019-06-08T23:57:10.104Z,56.20
2019-06-08T23:59:39.500Z,56.76
